Duke Field,(Eglin Af Aux Nr 3) Airport
KEGI : now visible

Airfield :











YOU CAN JOIN US ON...

 
LOGIN :

Register | Disclaimer

   EN    FR    IT 

 









Legend :    VFR   Marginal VFR   IFR   Intensive IFR   Very Intensive IFR
Visi :
Ceiling :
>= 8 km
>= 3000ft
5 to 8 km
1000 to 3000 ft
1500m to 5 km
500 to 1000 ft
800 to 1500m
200 to 500 ft
< 800m
< 200 ft
Symbols :   Thunderstorms  Fog  Heavy snow  Heavy precipitations  Wind > 20 kt







- Airport Elevation : 191 ft


KEGI - Duke Field,(Eglin Af Aux Nr 3)

CURRENT METAR :
  • 180956Z AUTO 00000KT 10SM CLR 23/23 A3007 RMK AO2 SLP182 T02310231 $

EXPIRED METARs :
  • 180856Z AUTO 00000KT 10SM CLR 24/23 A3006 RMK AO2 SLP178 T02380234 56009 $
  • 180756Z AUTO 00000KT 10SM CLR 26/24 A3006 RMK AO2 SLP178 T02580242 $

TAF TAF KEGI
Valid from the 18 at 09:00 until the 19 at 15:00 UTC


180900Z 1809/1915 VRB06KT 9999 FEW050 SCT250 QNH3011INS
BECMG 1813/1814 22009KT 9999 SCT050 BKN250 QNH3012INS
BECMG 1902/1903 VRB06KT 9999 SCT050 BKN250 QNH3005INS TX35/1821Z TN24/1811Z LAST NO AMDS AFT 1809 NEXT 1813
KZJX FIR / North America



MET'MAP, your aeronautical weather chart ! - Copyright ORBIFLY December 2007 - Disclaimer

ORBIFLY MET'MAP TEAM :

Programming & Development : Alexandra Zaïnal
Concept & Development : Baudouin d'Aumeries
Co-Development & Prog : Marc-Olivier Méhu
Technical & hardware support : Manuel Goepfert

Contact : metmap@orbifly.com




SOURCES & CREDITS :

   NOAA       Earth
Advisory